createdAt,value
2022-09-03T00:02:53.560Z,101160.03
2022-09-03T00:08:06.672Z,101164.56
2022-09-03T00:13:10.563Z,101160.09
2022-09-03T00:18:23.452Z,101160.94
2022-09-03T00:23:28.564Z,101165.09
2022-09-03T00:28:46.378Z,101155.50
2022-09-03T00:33:51.842Z,101167.50
2022-09-03T00:38:53.520Z,101170.94
2022-09-03T00:44:21.550Z,101172.44
2022-09-03T00:49:42.237Z,101171.66
2022-09-03T00:55:32.659Z,101170.53
2022-09-03T01:00:34.351Z,101161.84
2022-09-03T01:05:45.889Z,101166.97
2022-09-03T01:10:50.527Z,101171.28
2022-09-03T01:16:31.007Z,101171.66
2022-09-03T01:21:58.800Z,101171.00
2022-09-03T01:27:26.484Z,101171.78
2022-09-03T01:32:56.295Z,101176.00
2022-09-03T01:38:31.058Z,101176.72
2022-09-03T01:43:44.693Z,101173.97
2022-09-03T01:49:11.331Z,101182.22
2022-09-03T01:54:34.956Z,101184.75
2022-09-03T01:59:59.405Z,101185.44
2022-09-03T02:05:08.057Z,101186.78
2022-09-03T02:10:14.657Z,101181.44
2022-09-03T02:15:20.372Z,101192.50
2022-09-03T02:20:26.645Z,101188.53
2022-09-03T02:25:38.073Z,101190.16
2022-09-03T02:30:42.035Z,101193.09
2022-09-03T02:35:44.028Z,101188.78
2022-09-03T02:40:45.944Z,101180.75
2022-09-03T02:45:51.397Z,101185.75
2022-09-03T02:50:53.095Z,101184.38
2022-09-03T02:56:01.629Z,101186.78
2022-09-03T03:01:04.031Z,101186.38
2022-09-03T03:06:07.153Z,101187.25
2022-09-03T03:11:08.724Z,101184.84
2022-09-03T03:16:10.678Z,101181.84
2022-09-03T03:21:15.796Z,101178.06
2022-09-03T03:26:19.603Z,101172.03
2022-09-03T03:31:27.633Z,101178.22
2022-09-03T03:36:32.557Z,101185.84
2022-09-03T03:41:35.805Z,101182.69
2022-09-03T03:46:39.649Z,101177.34
2022-09-03T03:51:41.298Z,101187.09
2022-09-03T03:56:42.860Z,101183.75
2022-09-03T04:01:44.452Z,101184.69
2022-09-03T04:06:46.037Z,101187.69
2022-09-03T04:11:47.577Z,101186.81
2022-09-03T04:16:49.165Z,101187.28
2022-09-03T04:21:50.727Z,101194.41
2022-09-03T04:26:54.100Z,101189.75
2022-09-03T04:32:16.240Z,101191.69
2022-09-03T04:37:20.037Z,101192.56
2022-09-03T04:42:22.092Z,101186.28
2022-09-03T04:47:23.936Z,101179.94
2022-09-03T04:52:25.601Z,101180.72
2022-09-03T04:57:27.653Z,101174.84
2022-09-03T05:02:29.340Z,101174.31
2022-09-03T05:07:38.516Z,101177.91
2022-09-03T05:12:42.387Z,101178.59
2022-09-03T05:17:43.867Z,101182.19
2022-09-03T05:22:45.387Z,101182.13
2022-09-03T05:27:47.030Z,101187.81
2022-09-03T05:32:49.126Z,101178.78
2022-09-03T05:37:53.429Z,101190.75
2022-09-03T05:42:59.991Z,101203.56
2022-09-03T05:48:02.504Z,101187.56
2022-09-03T05:53:04.026Z,101178.78
2022-09-03T05:58:05.544Z,101187.28
2022-09-03T06:03:07.187Z,101179.41
2022-09-03T06:08:08.842Z,101181.31
2022-09-03T06:13:14.843Z,101177.13
2022-09-03T06:18:16.439Z,101182.50
2022-09-03T06:23:18.219Z,101177.06
2022-09-03T06:28:23.152Z,101171.41
2022-09-03T06:33:26.365Z,101159.03
2022-09-03T06:38:32.127Z,101151.94
2022-09-03T06:43:36.194Z,101157.44
2022-09-03T06:48:38.965Z,101150.16
2022-09-03T06:53:43.440Z,101143.00
2022-09-03T06:58:47.113Z,101142.56
2022-09-03T07:03:57.276Z,101144.31
2022-09-03T07:08:59.835Z,101141.78
2022-09-03T07:14:02.624Z,101139.19
2022-09-03T07:19:06.377Z,101147.03
2022-09-03T07:24:13.047Z,101141.59
2022-09-03T07:29:16.042Z,101141.53
2022-09-03T07:34:26.531Z,101137.72
2022-09-03T07:39:28.250Z,101138.38
2022-09-03T07:44:31.031Z,101135.56
2022-09-03T07:49:34.692Z,101128.25
2022-09-03T07:54:36.261Z,101139.47
2022-09-03T08:00:06.898Z,101133.78
2022-09-03T08:05:28.407Z,101145.19
2022-09-03T08:10:32.480Z,101128.00
2022-09-03T08:15:34.855Z,101127.28
2022-09-03T08:20:38.784Z,101133.38
2022-09-03T08:25:41.409Z,101130.94
2022-09-03T08:30:43.101Z,101136.44
2022-09-03T08:35:54.389Z,101130.56
2022-09-03T08:41:30.240Z,101125.19
2022-09-03T08:46:51.699Z,101131.06
2022-09-03T08:51:56.616Z,101123.63
2022-09-03T08:57:01.877Z,101125.03
2022-09-03T09:02:20.738Z,101127.22
2022-09-03T09:07:32.375Z,101127.00
2022-09-03T09:12:58.778Z,101129.72
2022-09-03T09:18:14.615Z,101128.06
2022-09-03T09:23:40.021Z,101120.66
2022-09-03T09:28:43.454Z,101120.31
2022-09-03T09:33:52.508Z,101114.03
2022-09-03T09:39:08.695Z,101110.13
2022-09-03T09:44:19.884Z,101111.66
2022-09-03T09:50:00.535Z,101115.50
2022-09-03T09:55:08.610Z,101105.19
2022-09-03T10:00:38.574Z,101102.88
2022-09-03T10:05:40.675Z,101103.47
2022-09-03T10:10:49.031Z,101115.13
2022-09-03T10:15:58.895Z,101099.09
2022-09-03T10:21:31.158Z,101101.72
2022-09-03T10:33:35.102Z,101102.16
2022-09-03T10:39:07.133Z,101097.06
2022-09-03T10:44:40.108Z,101103.25
2022-09-03T10:49:52.411Z,101094.81
2022-09-03T10:55:38.942Z,101086.53
2022-09-03T11:00:53.898Z,101090.53
2022-09-03T11:06:11.340Z,101089.06
2022-09-03T11:18:08.371Z,101087.31
2022-09-03T11:23:15.138Z,101085.28
2022-09-03T11:28:45.532Z,101076.97
2022-09-03T11:33:54.840Z,101068.59
2022-09-03T11:39:01.071Z,101071.16
2022-09-03T11:44:40.897Z,101070.09
2022-09-03T11:50:04.352Z,101063.38
2022-09-03T11:55:07.688Z,101069.44
2022-09-03T12:00:14.606Z,101065.56
2022-09-03T12:05:27.350Z,101063.16
2022-09-03T12:17:38.748Z,101056.50
2022-09-03T12:22:40.925Z,101040.53
2022-09-03T12:27:45.283Z,101044.03
2022-09-03T12:32:48.180Z,101054.50
2022-09-03T12:38:09.902Z,101054.28
2022-09-03T12:48:39.721Z,101034.25
2022-09-03T12:53:42.624Z,101036.75
2022-09-03T12:58:53.346Z,101041.50
2022-09-03T13:04:04.077Z,101031.81
2022-09-03T13:09:11.016Z,101034.72
2022-09-03T13:14:19.805Z,101036.19
2022-09-03T13:19:45.652Z,101029.13
2022-09-03T13:25:02.369Z,101032.59
2022-09-03T13:30:40.067Z,101022.69
2022-09-03T13:35:50.806Z,101022.50
2022-09-03T13:41:02.044Z,101026.00
2022-09-03T13:46:22.364Z,101027.56
2022-09-03T13:51:43.876Z,101033.38
2022-09-03T13:57:10.704Z,101019.88
2022-09-03T14:02:44.829Z,101022.97
2022-09-03T14:08:07.818Z,101032.06
2022-09-03T14:13:37.466Z,101019.78
2022-09-03T14:26:12.224Z,101028.84
2022-09-03T14:31:44.867Z,101029.06
2022-09-03T14:43:25.539Z,101023.59
2022-09-03T14:48:55.119Z,101024.97
2022-09-03T14:54:23.245Z,101023.22
2022-09-03T14:59:38.852Z,101026.88
2022-09-03T15:05:15.338Z,101032.19
2022-09-03T15:10:42.452Z,101031.84
2022-09-03T15:16:15.029Z,101027.94
2022-09-03T15:21:33.587Z,101013.41
2022-09-03T15:26:47.362Z,101011.63
2022-09-03T15:32:05.589Z,101024.78
2022-09-03T15:37:32.472Z,101011.41
2022-09-03T15:42:37.097Z,101023.13
2022-09-03T15:48:14.655Z,101025.25
2022-09-03T15:53:36.297Z,101021.78
2022-09-03T15:59:03.950Z,101022.59
2022-09-03T16:04:25.795Z,101018.44
2022-09-03T16:10:26.325Z,101029.84
2022-09-03T16:15:41.639Z,101030.31
2022-09-03T16:20:48.362Z,101027.75
2022-09-03T16:26:03.947Z,101030.25
2022-09-03T16:31:43.670Z,101035.06
2022-09-03T16:37:36.447Z,101030.25
2022-09-03T16:43:39.258Z,101021.56
2022-09-03T16:48:57.441Z,101028.06
2022-09-03T16:54:12.893Z,101035.16
2022-09-03T16:59:56.309Z,101034.78
2022-09-03T17:05:03.967Z,101033.72
2022-09-03T17:10:36.132Z,101034.38
2022-09-03T17:16:09.101Z,101034.13
2022-09-03T17:28:07.695Z,101037.50
2022-09-03T17:33:42.783Z,101034.41
2022-09-03T17:39:22.699Z,101031.13
2022-09-03T17:44:54.620Z,101041.63
2022-09-03T17:50:16.338Z,101038.97
2022-09-03T17:55:42.064Z,101049.81
2022-09-03T18:01:46.780Z,101055.22
2022-09-03T18:06:59.320Z,101060.22
2022-09-03T18:12:25.726Z,101071.84
2022-09-03T18:17:33.565Z,101088.38
2022-09-03T18:23:08.812Z,101095.13
2022-09-03T18:28:35.829Z,101101.25
2022-09-03T18:33:58.759Z,101104.50
2022-09-03T18:39:33.631Z,101119.88
2022-09-03T18:45:22.153Z,101135.31
2022-09-03T18:58:01.972Z,101136.69
2022-09-03T19:04:01.771Z,101142.34
2022-09-03T19:10:08.498Z,101149.78
2022-09-03T19:15:56.015Z,101151.31
2022-09-03T19:21:34.489Z,101161.19
2022-09-03T19:27:23.528Z,101161.72
2022-09-03T19:33:17.210Z,101175.31
2022-09-03T19:38:59.791Z,101184.50
2022-09-03T19:44:45.909Z,101192.53
2022-09-03T19:50:31.973Z,101204.00
2022-09-03T20:02:46.163Z,101219.06
2022-09-03T20:08:10.802Z,101223.31
2022-09-03T20:13:17.779Z,101208.91
2022-09-03T20:18:27.718Z,101217.47
2022-09-03T20:23:33.670Z,101224.28
2022-09-03T20:28:54.324Z,101228.59
2022-09-03T20:34:37.848Z,101234.88
2022-09-03T20:39:48.403Z,101242.69
2022-09-03T20:45:53.591Z,101249.00
2022-09-03T20:51:10.168Z,101253.38
2022-09-03T20:56:29.351Z,101258.63
2022-09-03T21:01:45.508Z,101259.47
2022-09-03T21:07:40.082Z,101259.53
2022-09-03T21:13:04.552Z,101267.50
2022-09-03T21:18:15.043Z,101274.63
2022-09-03T21:23:22.712Z,101278.19
2022-09-03T21:35:35.884Z,101309.47
2022-09-03T21:47:37.694Z,101320.59
2022-09-03T21:52:51.887Z,101318.88
2022-09-03T21:58:27.553Z,101318.91
2022-09-03T22:10:56.898Z,101336.66
2022-09-03T22:16:13.218Z,101343.34
2022-09-03T22:21:40.304Z,101372.94
2022-09-03T22:26:52.267Z,101379.19
2022-09-03T22:32:05.595Z,101364.75
2022-09-03T22:37:22.855Z,101361.28
2022-09-03T22:49:49.045Z,101366.00
2022-09-03T22:54:50.538Z,101373.41
2022-09-03T22:59:59.810Z,101397.16
2022-09-03T23:05:17.979Z,101407.22
2022-09-03T23:10:29.125Z,101408.81
2022-09-03T23:15:32.539Z,101410.47
2022-09-03T23:20:38.092Z,101424.91
2022-09-03T23:25:45.375Z,101421.88
2022-09-03T23:30:47.069Z,101421.63
2022-09-03T23:35:58.260Z,101429.28
2022-09-03T23:41:06.930Z,101430.69
2022-09-03T23:46:24.207Z,101443.69
2022-09-03T23:51:44.958Z,101456.03
2022-09-03T23:56:55.548Z,101463.03
